Alexander City, AL (35010)

8:09 PM CDT on August 29, 2015 (GMT -0500)
Russell | | Change Station
CLOSE
Current Station
Airport
Location: Alexander City,
Elevation: 686 ft
Nearby Weather Stations

Elev 686 ft 32.91 °N, 85.96 °W | Updated 14 minutes ago

Scattered Clouds
Scattered Clouds
74 °F
Feels Like 74 °F
N
0
Wind Variable Wind from North

Today
High -- | Low -- °F
--% Chance of Precip.
Yesterday
High -- | Low -- °F
Precip. -- in
6:16 AM 7:12 PM
Full, 100% visible
Pressure 30.12 in
Visibility 10.0 miles
Clouds Scattered Clouds 10000 ft
Dew Point 72 °F
Humidity 93%
Rainfall 0.46 in
Snow Depth Not available.
UV 0 out of 12
Pollen 8.10 out of 12
Air Quality Not available.
Flu Activity Not available.
METAR KALX 300055Z AUTO 00000KT 10SM SCT100 24/22 A3012 RMK AO2 T02350223
Pressure 30.12 in
Visibility 10.0 miles
Clouds Scattered Clouds 10000 ft
Dew Point 72 °F
Humidity 93%
Rainfall 0.46 in
Snow Depth Not available.
UV 0 out of 12
Pollen 8.10 out of 12
Air Quality Not available.
Flu Activity Not available.
METAR KALX 300055Z AUTO 00000KT 10SM SCT100 24/22 A3012 RMK AO2 T02350223

10-Day Weather Forecast

×

Almanac

Astronomy

Aug. 29, 2015 Rise Set
Actual Time
Civil Twilight
Nautical Twilight
Astronomical Twilight
Moon
Length of Visible Light
Length of Day
Tomorrow will be .
, % of the Moon is Illuminated

Today's Extremes

State Highs State Lows

Community

WunderPhotos

Upload Photos

1,850,823 photos uploaded!

WunderBlogs® & News

Nearby

Air Quality

  Air Quality AQ Index Pollutant
Not available.

Snow Depth

Station Depth Elevation

Earthquake Activity

City Distance Mag. Time & Date
Minimum magnitude displayed is 2.5.

Coastal Water Temperatures

Place Temperature

Stations

Nearby Weather Stations

Station Location Temp. Windchill Dew Point Humidity Wind Precip. Elev Updated Type